createdAt,value
2018-09-27T00:00:41.096Z,8.63
2018-09-27T00:01:41.266Z,8.61
2018-09-27T00:02:41.436Z,8.63
2018-09-27T00:03:41.608Z,8.61
2018-09-27T00:04:41.779Z,8.61
2018-09-27T00:07:42.291Z,8.37
2018-09-27T00:08:42.465Z,8.51
2018-09-27T00:09:42.643Z,8.45
2018-09-27T00:10:42.815Z,8.45
2018-09-27T00:12:43.150Z,8.27
2018-09-27T00:13:43.333Z,8.31
2018-09-27T00:14:43.508Z,8.26
2018-09-27T00:15:43.682Z,8.27
2018-09-27T00:16:43.857Z,8.15
2018-09-27T00:17:44.036Z,8.19
2018-09-27T00:18:44.200Z,8.23
2018-09-27T00:19:44.434Z,8.19
2018-09-27T00:20:44.552Z,8.23
2018-09-27T00:22:44.900Z,8.27
2018-09-27T00:23:45.070Z,8.30
2018-09-27T00:24:45.245Z,8.27
2018-09-27T00:25:45.425Z,8.34
2018-09-27T00:26:45.596Z,8.27
2018-09-27T00:27:45.794Z,8.37
2018-09-27T00:28:45.933Z,8.28
2018-09-27T00:29:46.113Z,8.23
2018-09-27T00:30:46.289Z,8.30
2018-09-27T00:31:46.466Z,8.31
2018-09-27T00:32:46.640Z,8.13
2018-09-27T00:33:46.818Z,8.08
2018-09-27T00:34:46.992Z,8.00
2018-09-27T00:35:47.167Z,7.95
2018-09-27T00:36:47.335Z,7.97
2018-09-27T00:37:47.511Z,7.97
2018-09-27T00:38:47.685Z,8.01
2018-09-27T00:39:47.868Z,8.08
2018-09-27T00:40:48.035Z,8.09
2018-09-27T00:41:48.212Z,8.08
2018-09-27T00:42:48.396Z,8.24
2018-09-27T00:43:48.572Z,8.20
2018-09-27T00:44:48.749Z,8.12
2018-09-27T00:45:48.919Z,8.00
2018-09-27T00:46:49.092Z,7.88
2018-09-27T00:47:49.265Z,7.85
2018-09-27T00:48:49.437Z,7.80
2018-09-27T00:49:49.616Z,7.90
2018-09-27T00:50:49.789Z,7.95
2018-09-27T00:51:49.966Z,7.94
2018-09-27T00:52:50.139Z,7.91
2018-09-27T00:53:50.313Z,7.98
2018-09-27T00:54:50.497Z,7.98
2018-09-27T00:55:50.667Z,7.94
2018-09-27T00:56:50.849Z,7.93
2018-09-27T00:57:51.022Z,7.95
2018-09-27T00:58:51.191Z,7.91
2018-09-27T00:59:51.366Z,7.95
2018-09-27T01:00:51.542Z,8.01
2018-09-27T01:01:51.715Z,8.05
2018-09-27T01:02:51.889Z,7.93
2018-09-27T01:03:52.067Z,7.97
2018-09-27T01:04:52.237Z,8.08
2018-09-27T01:05:52.413Z,8.06
2018-09-27T01:06:52.589Z,8.01
2018-09-27T01:07:52.760Z,8.06
2018-09-27T01:08:52.936Z,8.09
2018-09-27T01:09:53.114Z,8.09
2018-09-27T01:10:53.278Z,7.93
2018-09-27T01:11:53.454Z,7.97
2018-09-27T01:12:53.639Z,8.06
2018-09-27T01:13:53.806Z,8.08
2018-09-27T01:14:53.980Z,8.03
2018-09-27T01:15:54.161Z,8.05
2018-09-27T01:16:54.326Z,8.01
2018-09-27T01:17:54.501Z,8.06
2018-09-27T01:18:54.672Z,8.10
2018-09-27T01:19:54.848Z,8.06
2018-09-27T01:20:55.021Z,7.98
2018-09-27T01:21:55.196Z,8.05
2018-09-27T01:22:55.370Z,8.10
2018-09-27T01:23:55.557Z,8.08
2018-09-27T01:24:55.721Z,8.05
2018-09-27T01:25:55.897Z,8.01
2018-09-27T01:26:56.057Z,7.93
2018-09-27T01:27:56.237Z,7.87
2018-09-27T01:28:56.396Z,7.91
2018-09-27T01:29:56.581Z,7.90
2018-09-27T01:30:56.747Z,7.93
2018-09-27T01:31:56.927Z,7.90
2018-09-27T01:32:57.097Z,7.72
2018-09-27T01:33:57.270Z,7.79
2018-09-27T01:34:57.452Z,7.72
2018-09-27T01:35:57.618Z,7.73
2018-09-27T01:36:57.802Z,7.73
2018-09-27T01:37:57.963Z,7.69
2018-09-27T01:38:58.137Z,7.70
2018-09-27T01:39:58.312Z,7.69
2018-09-27T01:40:58.484Z,7.77
2018-09-27T01:41:58.662Z,7.73
2018-09-27T01:42:58.840Z,7.70
2018-09-27T01:43:59.002Z,7.63
2018-09-27T01:44:59.175Z,7.58
2018-09-27T01:45:59.351Z,7.58
2018-09-27T01:46:59.548Z,7.53
2018-09-27T01:47:59.721Z,7.48
2018-09-27T01:48:59.872Z,7.38
2018-09-27T01:50:00.049Z,7.39
2018-09-27T01:51:00.221Z,7.25
2018-09-27T01:52:00.398Z,7.20
2018-09-27T01:53:00.571Z,7.45
2018-09-27T01:54:00.741Z,7.43
2018-09-27T01:55:00.914Z,7.56
2018-09-27T01:56:01.095Z,7.60
2018-09-27T01:57:01.264Z,7.70
2018-09-27T01:58:01.432Z,7.72
2018-09-27T01:59:01.605Z,7.73
2018-09-27T02:00:01.781Z,7.79
2018-09-27T02:01:01.951Z,7.77
2018-09-27T02:02:02.131Z,7.87
2018-09-27T02:03:02.299Z,7.85
2018-09-27T02:04:02.484Z,7.77
2018-09-27T02:05:02.649Z,7.90
2018-09-27T02:06:02.823Z,7.80
2018-09-27T02:07:02.987Z,7.90
2018-09-27T02:08:03.171Z,7.82
2018-09-27T02:09:03.340Z,7.83
2018-09-27T02:10:03.530Z,7.76
2018-09-27T02:11:03.685Z,7.73
2018-09-27T02:12:03.865Z,7.67
2018-09-27T02:13:04.034Z,7.72
2018-09-27T02:14:04.208Z,7.72
2018-09-27T02:15:04.381Z,7.69
2018-09-27T02:16:04.555Z,7.85
2018-09-27T02:17:04.727Z,7.80
2018-09-27T02:18:04.912Z,7.87
2018-09-27T02:19:05.076Z,7.83
2018-09-27T02:20:05.251Z,7.77
2018-09-27T02:21:05.425Z,7.87
2018-09-27T02:22:05.597Z,7.80
2018-09-27T02:23:05.769Z,7.76
2018-09-27T02:24:05.939Z,7.73
2018-09-27T02:25:06.112Z,7.83
2018-09-27T02:26:06.286Z,7.82
2018-09-27T02:27:06.459Z,7.72
2018-09-27T02:28:06.636Z,7.73
2018-09-27T02:29:06.808Z,7.76
2018-09-27T02:30:06.984Z,7.73
2018-09-27T02:31:07.160Z,7.72
2018-09-27T02:32:07.326Z,7.70
2018-09-27T02:33:07.496Z,7.73
2018-09-27T02:34:07.677Z,7.77
2018-09-27T02:35:07.847Z,7.67
2018-09-27T02:36:08.021Z,7.70
2018-09-27T02:37:08.194Z,7.58
2018-09-27T02:38:08.365Z,7.39
2018-09-27T02:39:08.542Z,7.28
2018-09-27T02:40:08.716Z,7.23
2018-09-27T02:41:08.895Z,7.25
2018-09-27T02:42:09.065Z,7.39
2018-09-27T02:43:09.240Z,7.31
2018-09-27T02:44:09.413Z,7.40
2018-09-27T02:45:09.592Z,7.31
2018-09-27T02:46:09.758Z,7.42
2018-09-27T02:47:09.933Z,7.47
2018-09-27T02:48:10.106Z,7.51
2018-09-27T02:49:10.281Z,7.57
2018-09-27T02:50:10.453Z,7.57
2018-09-27T02:51:10.638Z,7.50
2018-09-27T02:52:10.819Z,7.58
2018-09-27T02:53:10.984Z,7.61
2018-09-27T02:54:11.160Z,7.69
2018-09-27T02:55:11.335Z,7.60
2018-09-27T02:56:11.515Z,7.69
2018-09-27T02:57:11.674Z,7.66
2018-09-27T02:58:11.851Z,7.66
2018-09-27T02:59:12.022Z,7.58
2018-09-27T03:00:12.205Z,7.61
2018-09-27T03:01:12.372Z,7.61
2018-09-27T03:02:12.543Z,7.58
2018-09-27T03:03:12.719Z,7.60
2018-09-27T03:04:12.896Z,7.61
2018-09-27T03:05:13.072Z,7.67
2018-09-27T03:06:13.244Z,7.51
2018-09-27T03:07:13.421Z,7.54
2018-09-27T03:08:13.584Z,7.66
2018-09-27T03:09:13.768Z,7.58
2018-09-27T03:10:13.923Z,7.45
2018-09-27T03:11:14.100Z,7.45
2018-09-27T03:12:14.284Z,7.36
2018-09-27T03:13:14.447Z,7.31
2018-09-27T03:14:14.627Z,7.29
2018-09-27T03:15:14.795Z,7.32
2018-09-27T03:16:14.978Z,7.38
2018-09-27T03:17:15.139Z,7.33
2018-09-27T03:18:15.317Z,7.28
2018-09-27T03:19:15.491Z,7.32
2018-09-27T03:20:15.672Z,7.39
2018-09-27T03:21:15.842Z,7.47
2018-09-27T03:22:16.019Z,7.39
2018-09-27T03:23:16.191Z,7.36
2018-09-27T03:24:16.356Z,7.36
2018-09-27T03:25:16.533Z,7.43
2018-09-27T03:26:16.737Z,7.43
2018-09-27T03:27:16.873Z,7.38
2018-09-27T03:28:17.050Z,7.29
2018-09-27T03:29:17.228Z,7.28
2018-09-27T03:30:17.406Z,7.32
2018-09-27T03:31:17.601Z,7.17
2018-09-27T03:32:17.749Z,7.25
2018-09-27T03:33:17.928Z,7.17
2018-09-27T03:34:18.099Z,7.23
2018-09-27T03:35:18.277Z,7.00
2018-09-27T03:36:18.449Z,6.92
2018-09-27T03:37:18.621Z,6.67
2018-09-27T03:38:18.795Z,6.60
2018-09-27T03:39:18.965Z,6.56
2018-09-27T03:40:19.248Z,6.52
2018-09-27T03:41:19.316Z,6.60
2018-09-27T03:42:19.501Z,6.63
2018-09-27T03:43:19.657Z,6.72
2018-09-27T03:44:19.838Z,6.66
2018-09-27T03:45:20.009Z,6.79
2018-09-27T03:46:20.182Z,6.79
2018-09-27T03:47:20.357Z,6.66
2018-09-27T03:48:20.527Z,6.72
2018-09-27T03:49:20.698Z,6.84
2018-09-27T03:50:20.869Z,6.87
2018-09-27T03:51:21.040Z,6.88
2018-09-27T03:52:21.213Z,6.92
2018-09-27T03:53:21.389Z,7.02
2018-09-27T03:54:21.564Z,7.06
2018-09-27T03:55:21.736Z,7.03
2018-09-27T03:56:21.911Z,6.97
2018-09-27T03:57:22.084Z,7.06
2018-09-27T03:58:22.260Z,6.93
2018-09-27T03:59:22.427Z,6.85
2018-09-27T04:00:22.598Z,7.02
2018-09-27T04:01:22.763Z,6.96
2018-09-27T04:02:22.940Z,7.03
2018-09-27T04:03:23.163Z,6.99
2018-09-27T04:04:23.284Z,7.07
2018-09-27T04:05:23.447Z,7.10
2018-09-27T04:06:23.636Z,7.11
2018-09-27T04:07:23.795Z,7.07
2018-09-27T04:08:23.973Z,7.10
2018-09-27T04:09:24.144Z,7.23
2018-09-27T04:10:24.313Z,7.23
2018-09-27T04:11:24.488Z,7.13
2018-09-27T04:12:24.679Z,7.06
2018-09-27T04:13:24.835Z,6.99
2018-09-27T04:14:25.011Z,6.97
2018-09-27T04:15:25.198Z,6.97
2018-09-27T04:16:25.356Z,6.93
2018-09-27T04:17:25.532Z,7.00
2018-09-27T04:18:25.706Z,7.03
2018-09-27T04:19:25.885Z,6.97
2018-09-27T04:20:26.062Z,7.10
2018-09-27T04:21:26.232Z,7.11
2018-09-27T04:22:26.408Z,7.10
2018-09-27T04:23:26.579Z,7.02
2018-09-27T04:24:26.755Z,6.97
2018-09-27T04:25:26.927Z,6.85
2018-09-27T04:26:27.101Z,6.89
2018-09-27T04:27:27.274Z,6.87
2018-09-27T04:28:27.447Z,6.85
2018-09-27T04:29:27.617Z,6.89
2018-09-27T04:30:27.793Z,6.82
2018-09-27T04:31:27.962Z,6.79
2018-09-27T04:32:28.137Z,6.92
2018-09-27T04:33:28.307Z,6.97
2018-09-27T04:34:28.484Z,6.97
2018-09-27T04:35:28.659Z,6.99
2018-09-27T04:36:28.832Z,7.05
2018-09-27T04:37:29.005Z,7.05
2018-09-27T04:38:29.180Z,7.10
2018-09-27T04:39:29.354Z,7.06
2018-09-27T04:40:29.528Z,7.13
2018-09-27T04:41:29.704Z,7.21
2018-09-27T04:42:29.879Z,7.20
2018-09-27T04:43:30.048Z,7.17
2018-09-27T04:44:30.236Z,7.06
2018-09-27T04:45:30.398Z,7.14
2018-09-27T04:46:30.624Z,7.15
2018-09-27T04:47:30.748Z,7.13
2018-09-27T04:48:30.905Z,7.02
2018-09-27T04:49:31.083Z,7.02
2018-09-27T04:50:31.274Z,7.06
2018-09-27T04:51:31.431Z,6.99
2018-09-27T04:52:31.602Z,6.95
2018-09-27T04:53:31.775Z,6.88
2018-09-27T04:54:31.982Z,6.87
2018-09-27T04:55:32.131Z,6.85
2018-09-27T04:56:32.305Z,6.96
2018-09-27T04:57:32.476Z,6.99
2018-09-27T04:58:32.652Z,7.06
2018-09-27T04:59:32.823Z,6.93
2018-09-27T05:00:33.005Z,6.97
2018-09-27T05:01:33.172Z,6.92
2018-09-27T05:02:33.343Z,7.03
2018-09-27T05:03:33.524Z,6.95
2018-09-27T05:04:33.699Z,6.99
2018-09-27T05:05:33.874Z,6.93
2018-09-27T05:06:34.047Z,6.89
2018-09-27T05:07:34.223Z,6.89
2018-09-27T05:08:34.405Z,6.89
2018-09-27T05:09:34.584Z,6.99
2018-09-27T05:10:34.748Z,6.87
2018-09-27T05:11:34.900Z,6.75
2018-09-27T05:12:35.075Z,6.67
2018-09-27T05:13:35.253Z,6.87
2018-09-27T05:14:35.421Z,6.78
2018-09-27T05:15:35.657Z,6.85
2018-09-27T05:16:35.770Z,6.87
2018-09-27T05:17:35.949Z,6.88
2018-09-27T05:18:36.123Z,6.84
2018-09-27T05:19:36.299Z,6.93
2018-09-27T05:20:36.527Z,6.88
2018-09-27T05:21:36.719Z,6.92
2018-09-27T05:22:36.828Z,6.96
2018-09-27T05:23:36.979Z,6.88
2018-09-27T05:24:37.153Z,6.82
2018-09-27T05:25:37.330Z,6.79
2018-09-27T05:26:37.505Z,6.89
2018-09-27T05:27:37.708Z,6.84
2018-09-27T05:28:37.847Z,6.89
2018-09-27T05:29:38.025Z,6.87
2018-09-27T05:30:38.196Z,6.89
2018-09-27T05:31:38.382Z,6.93
2018-09-27T05:32:38.542Z,7.02
2018-09-27T05:33:38.796Z,6.96
2018-09-27T05:34:38.888Z,6.87
2018-09-27T05:35:39.077Z,6.78
2018-09-27T05:36:40.079Z,6.74
2018-09-27T05:37:39.396Z,6.72
2018-09-27T05:38:39.570Z,6.63
2018-09-27T05:39:39.873Z,6.54
2018-09-27T05:40:39.912Z,6.54
2018-09-27T05:41:40.090Z,6.59
2018-09-27T05:42:40.273Z,6.51
2018-09-27T05:43:40.429Z,6.60
2018-09-27T05:44:40.607Z,6.59
2018-09-27T05:45:40.886Z,6.54
2018-09-27T05:46:40.948Z,6.42
2018-09-27T05:47:41.123Z,6.38
2018-09-27T05:48:41.304Z,6.44
2018-09-27T05:49:41.495Z,6.59
2018-09-27T05:50:41.681Z,6.42
2018-09-27T05:51:41.920Z,6.56
2018-09-27T05:52:42.016Z,6.69
2018-09-27T05:53:42.203Z,6.82
2018-09-27T05:54:42.374Z,6.79
2018-09-27T05:55:42.566Z,6.85
2018-09-27T05:56:42.724Z,6.97
2018-09-27T05:57:42.972Z,7.05
2018-09-27T05:58:43.086Z,7.06
2018-09-27T05:59:43.263Z,7.21
2018-09-27T06:00:43.431Z,7.24
2018-09-27T06:01:43.607Z,7.20
2018-09-27T06:02:43.777Z,7.17
2018-09-27T06:03:44.010Z,7.17
2018-09-27T06:04:44.119Z,7.23
2018-09-27T06:05:44.291Z,7.33
2018-09-27T06:06:44.464Z,7.63
2018-09-27T06:07:44.639Z,8.09
2018-09-27T06:08:44.819Z,8.27
2018-09-27T06:09:44.989Z,8.24
2018-09-27T06:10:45.162Z,8.44
2018-09-27T06:11:45.342Z,8.78
2018-09-27T06:12:45.534Z,8.92
2018-09-27T06:13:45.707Z,9.26
2018-09-27T06:14:45.878Z,9.41
2018-09-27T06:15:46.053Z,9.68
2018-09-27T06:16:46.233Z,10.05
2018-09-27T06:17:46.399Z,10.35
2018-09-27T06:18:46.581Z,10.54
2018-09-27T06:19:46.794Z,10.51
2018-09-27T06:20:46.947Z,10.71
2018-09-27T06:21:47.126Z,10.81
2018-09-27T06:22:47.301Z,11.22
2018-09-27T06:23:47.474Z,11.29
2018-09-27T06:24:47.653Z,11.50
2018-09-27T06:25:47.833Z,11.37
2018-09-27T06:26:48.009Z,11.44
2018-09-27T06:27:48.194Z,11.30
2018-09-27T06:28:48.374Z,11.05
2018-09-27T06:29:48.547Z,10.59
2018-09-27T06:30:48.727Z,10.68
2018-09-27T06:31:48.909Z,10.42
2018-09-27T06:32:49.073Z,10.78
2018-09-27T06:33:49.250Z,11.10
2018-09-27T06:34:49.428Z,11.36
2018-09-27T06:35:49.608Z,11.47
2018-09-27T06:36:49.786Z,11.44
2018-09-27T06:37:49.974Z,11.63
2018-09-27T06:38:50.170Z,11.87
2018-09-27T06:39:50.336Z,12.22
2018-09-27T06:40:50.516Z,12.03
2018-09-27T06:41:50.714Z,12.20
2018-09-27T06:42:50.871Z,12.36
2018-09-27T06:43:51.044Z,12.93
2018-09-27T06:44:51.223Z,13.30
2018-09-27T06:45:51.410Z,13.22
2018-09-27T06:46:51.585Z,13.60
2018-09-27T06:47:51.770Z,13.70
2018-09-27T06:48:52.031Z,13.78
2018-09-27T06:49:52.199Z,14.08
2018-09-27T06:50:52.335Z,14.17
2018-09-27T06:51:52.507Z,14.30
2018-09-27T06:52:52.685Z,14.28
2018-09-27T06:53:52.868Z,14.33
2018-09-27T06:54:53.167Z,14.26
2018-09-27T06:55:53.398Z,14.08
2018-09-27T06:56:53.433Z,14.22
2018-09-27T06:57:53.615Z,14.10
2018-09-27T06:58:53.806Z,14.28
2018-09-27T06:59:53.977Z,14.20
2018-09-27T07:00:54.181Z,14.28
2018-09-27T07:01:54.343Z,14.41
2018-09-27T07:02:54.521Z,14.40
2018-09-27T07:03:54.708Z,14.59
2018-09-27T07:04:54.953Z,14.44
2018-09-27T07:05:55.202Z,14.68
2018-09-27T07:06:55.261Z,14.51
2018-09-27T07:07:55.441Z,14.10
2018-09-27T07:08:55.645Z,13.95
2018-09-27T07:09:55.797Z,13.87
2018-09-27T07:10:55.979Z,14.03
2018-09-27T07:11:56.176Z,14.10
2018-09-27T07:12:56.350Z,14.30
2018-09-27T07:13:56.522Z,14.37
2018-09-27T07:14:56.703Z,14.32
2018-09-27T07:15:56.889Z,14.41
2018-09-27T07:16:57.094Z,14.53
2018-09-27T07:17:57.250Z,14.62
2018-09-27T07:18:57.410Z,14.85
2018-09-27T07:19:57.612Z,14.40
2018-09-27T07:20:57.770Z,14.69
2018-09-27T07:21:57.951Z,14.48
2018-09-27T07:22:58.133Z,14.60
2018-09-27T07:23:58.314Z,14.77
2018-09-27T07:24:58.522Z,14.73
2018-09-27T07:25:58.676Z,14.84
2018-09-27T07:26:58.900Z,14.85
2018-09-27T07:27:59.063Z,14.44
2018-09-27T07:28:59.185Z,14.51
2018-09-27T07:30:00.203Z,14.50
2018-09-27T07:30:59.596Z,14.29
2018-09-27T07:31:59.734Z,14.03
2018-09-27T07:32:59.909Z,14.12
2018-09-27T07:34:00.115Z,14.32
2018-09-27T07:35:00.292Z,14.53
2018-09-27T07:36:00.406Z,14.73
2018-09-27T07:37:00.568Z,14.97
2018-09-27T07:38:00.779Z,15.24
2018-09-27T07:39:00.912Z,15.02
2018-09-27T07:40:01.088Z,15.17
2018-09-27T07:41:01.310Z,15.31
2018-09-27T07:42:01.436Z,15.33
2018-09-27T07:43:01.648Z,15.58
2018-09-27T07:44:01.801Z,15.55
2018-09-27T07:45:01.971Z,15.42
2018-09-27T07:46:02.127Z,15.65
2018-09-27T07:47:02.275Z,15.73
2018-09-27T07:48:02.455Z,15.44
2018-09-27T07:49:02.615Z,16.01
2018-09-27T07:50:02.800Z,16.53
2018-09-27T07:51:02.939Z,16.50
2018-09-27T07:52:03.149Z,16.74
2018-09-27T07:53:03.312Z,16.71
2018-09-27T07:54:03.494Z,16.81
2018-09-27T07:55:03.713Z,17.09
2018-09-27T07:56:03.863Z,17.24
2018-09-27T07:57:04.034Z,17.63
2018-09-27T07:58:04.167Z,17.70
2018-09-27T07:59:04.341Z,17.97
2018-09-27T08:00:04.595Z,17.45
2018-09-27T08:01:04.699Z,17.90
2018-09-27T08:02:04.924Z,17.85
2018-09-27T08:03:05.184Z,18.05
2018-09-27T08:04:05.330Z,18.35
2018-09-27T08:05:05.547Z,18.19
2018-09-27T08:06:05.757Z,17.98
2018-09-27T08:07:05.912Z,17.33
2018-09-27T08:08:06.124Z,17.22
2018-09-27T08:09:06.264Z,17.33
2018-09-27T08:10:06.480Z,17.79
2018-09-27T08:11:06.670Z,17.87
2018-09-27T08:12:06.770Z,18.16
2018-09-27T08:13:06.967Z,17.97
2018-09-27T08:14:07.122Z,18.34
2018-09-27T08:15:07.307Z,18.20
2018-09-27T08:17:07.652Z,17.08
2018-09-27T08:18:07.801Z,17.48
2018-09-27T08:19:08.032Z,17.95
2018-09-27T08:20:08.140Z,18.40
2018-09-27T08:21:08.467Z,18.84
2018-09-27T08:22:08.513Z,19.19
2018-09-27T08:23:08.672Z,19.54
2018-09-27T08:24:08.908Z,20.02
2018-09-27T08:25:09.079Z,20.00
2018-09-27T08:26:10.133Z,19.89
2018-09-27T08:27:09.466Z,20.47
2018-09-27T08:28:09.615Z,20.58
2018-09-27T08:29:09.771Z,20.95
2018-09-27T08:30:09.933Z,20.82
2018-09-27T08:31:10.185Z,20.62
2018-09-27T08:32:10.334Z,20.72
2018-09-27T08:33:10.556Z,20.69
2018-09-27T08:34:10.739Z,20.78
2018-09-27T08:35:10.842Z,21.00
2018-09-27T08:36:11.027Z,21.51
2018-09-27T08:37:11.240Z,20.78
2018-09-27T08:38:11.425Z,21.00
2018-09-27T08:39:11.529Z,21.58
2018-09-27T08:40:11.761Z,20.47
2018-09-27T08:41:11.869Z,20.06
2018-09-27T08:42:12.111Z,20.50
2018-09-27T08:43:12.211Z,19.45
2018-09-27T08:44:12.436Z,19.14
2018-09-27T08:45:13.060Z,19.36
2018-09-27T08:46:12.773Z,19.00
2018-09-27T08:47:12.897Z,18.98
2018-09-27T08:48:13.122Z,18.95
2018-09-27T08:49:13.326Z,19.59
2018-09-27T08:50:13.415Z,20.11
2018-09-27T08:51:13.614Z,19.89
2018-09-27T08:52:13.743Z,20.10
2018-09-27T08:53:13.936Z,20.09
2018-09-27T08:54:14.084Z,20.65
2018-09-27T08:55:14.273Z,21.30
2018-09-27T08:56:14.469Z,21.50
2018-09-27T08:57:14.637Z,21.98
2018-09-27T08:58:14.807Z,21.99
2018-09-27T08:59:15.020Z,22.75
2018-09-27T09:00:15.194Z,22.69
2018-09-27T09:01:15.435Z,23.13
2018-09-27T09:02:15.499Z,23.37
2018-09-27T09:03:15.700Z,23.68
2018-09-27T09:04:15.998Z,23.55
2018-09-27T09:05:16.135Z,23.46
2018-09-27T09:06:16.307Z,23.83
2018-09-27T09:07:16.522Z,24.02
2018-09-27T09:08:16.679Z,24.35
2018-09-27T09:09:16.845Z,24.81
2018-09-27T09:10:17.040Z,25.23
2018-09-27T09:11:17.231Z,25.26
2018-09-27T09:12:17.514Z,25.68
2018-09-27T09:13:17.568Z,25.43
2018-09-27T09:14:17.769Z,25.99
2018-09-27T09:15:17.981Z,25.28
2018-09-27T09:16:18.134Z,25.26
2018-09-27T09:17:18.263Z,25.46
2018-09-27T09:18:18.490Z,25.28
2018-09-27T09:19:18.629Z,25.66
2018-09-27T09:20:18.816Z,26.10
2018-09-27T09:21:19.030Z,26.18
2018-09-27T09:22:19.163Z,26.66
2018-09-27T09:23:19.351Z,26.78
2018-09-27T09:24:19.518Z,26.80
2018-09-27T09:25:19.751Z,26.97
2018-09-27T09:26:19.870Z,27.35
2018-09-27T09:27:20.041Z,27.74
2018-09-27T09:28:20.232Z,27.74
2018-09-27T09:29:20.522Z,27.52
2018-09-27T09:30:20.667Z,27.12
2018-09-27T09:31:20.763Z,26.89
2018-09-27T09:32:20.941Z,27.26
2018-09-27T09:33:21.097Z,27.58
2018-09-27T09:34:21.288Z,27.71
2018-09-27T09:35:23.520Z,27.32
2018-09-27T09:36:21.712Z,27.35
2018-09-27T09:37:21.822Z,27.73
2018-09-27T09:38:21.979Z,27.26
2018-09-27T09:39:22.156Z,27.48
2018-09-27T09:40:22.353Z,27.83
2018-09-27T09:41:22.568Z,27.70
2018-09-27T09:42:22.739Z,27.75
2018-09-27T09:43:22.862Z,27.77
2018-09-27T09:44:23.048Z,27.73
2018-09-27T09:45:23.293Z,27.87
2018-09-27T09:46:23.404Z,28.12
2018-09-27T09:47:23.654Z,28.25
2018-09-27T09:48:23.856Z,27.95
2018-09-27T09:49:23.930Z,27.47
2018-09-27T09:50:24.147Z,27.85
2018-09-27T09:51:24.258Z,27.83
2018-09-27T09:52:24.460Z,28.04
2018-09-27T09:53:24.617Z,28.41
2018-09-27T09:54:24.862Z,27.36
2018-09-27T09:55:25.035Z,27.26
2018-09-27T09:56:25.303Z,27.73
2018-09-27T09:57:25.447Z,28.15
2018-09-27T09:58:25.616Z,28.15
2018-09-27T09:59:25.794Z,27.90
2018-09-27T10:00:26.037Z,27.96
2018-09-27T10:01:26.259Z,27.35
2018-09-27T10:02:26.484Z,27.18
2018-09-27T10:03:26.653Z,27.86
2018-09-27T10:04:26.805Z,28.02
2018-09-27T10:05:27.016Z,28.00
2018-09-27T10:06:27.147Z,28.49
2018-09-27T10:07:27.365Z,28.33
2018-09-27T10:08:27.528Z,28.19
2018-09-27T10:09:27.697Z,28.38
2018-09-27T10:10:27.879Z,27.64
2018-09-27T10:11:28.099Z,27.82
2018-09-27T10:12:28.290Z,27.47
2018-09-27T10:13:28.402Z,27.67
2018-09-27T10:14:28.598Z,28.14
2018-09-27T10:15:28.836Z,28.51
2018-09-27T10:16:29.016Z,28.67
2018-09-27T10:17:29.199Z,27.95
2018-09-27T10:18:29.342Z,27.93
2018-09-27T10:19:29.485Z,27.26
2018-09-27T10:20:29.643Z,27.82
2018-09-27T10:21:29.879Z,27.22
2018-09-27T10:22:30.009Z,27.47
2018-09-27T10:23:30.198Z,27.78
2018-09-27T10:24:30.416Z,28.23
2018-09-27T10:25:30.582Z,28.02
2018-09-27T10:26:30.765Z,27.98
2018-09-27T10:27:31.054Z,28.45
2018-09-27T10:28:31.177Z,28.51
2018-09-27T10:29:31.316Z,28.72
2018-09-27T10:30:31.490Z,29.08
2018-09-27T10:31:31.715Z,28.66
2018-09-27T10:32:31.829Z,28.75
2018-09-27T10:33:32.034Z,28.69
2018-09-27T10:34:32.228Z,28.29
2018-09-27T10:35:32.428Z,27.51
2018-09-27T10:36:32.695Z,27.27
2018-09-27T10:37:32.847Z,27.71
2018-09-27T10:38:32.988Z,28.08
2018-09-27T10:39:33.139Z,28.89
2018-09-27T10:40:33.380Z,29.13
2018-09-27T10:41:33.493Z,29.45
2018-09-27T10:42:33.691Z,29.75
2018-09-27T10:43:33.934Z,29.07
2018-09-27T10:44:34.047Z,28.97
2018-09-27T10:45:34.401Z,28.26
2018-09-27T10:46:34.472Z,27.89
2018-09-27T10:47:34.628Z,28.56
2018-09-27T10:48:34.795Z,29.12
2018-09-27T10:49:34.993Z,29.36
2018-09-27T10:50:35.165Z,29.01
2018-09-27T10:51:35.375Z,28.62
2018-09-27T10:52:35.519Z,28.47
2018-09-27T10:53:35.726Z,28.94
2018-09-27T10:54:35.926Z,28.07
2018-09-27T10:55:36.153Z,28.52
2018-09-27T10:56:36.353Z,27.78
2018-09-27T10:57:36.463Z,27.93
2018-09-27T10:58:36.641Z,27.64
2018-09-27T10:59:36.974Z,27.10
2018-09-27T11:00:37.008Z,27.95
2018-09-27T11:01:37.203Z,28.00
2018-09-27T11:02:37.400Z,28.38
2018-09-27T11:03:37.576Z,28.32
2018-09-27T11:04:37.782Z,28.84
2018-09-27T11:05:38.063Z,29.16
2018-09-27T11:06:38.163Z,29.16
2018-09-27T11:07:38.335Z,28.70
2018-09-27T11:08:38.537Z,29.10
2018-09-27T11:09:38.718Z,28.74
2018-09-27T11:10:38.902Z,28.75
2018-09-27T11:11:39.057Z,29.02
2018-09-27T11:12:39.266Z,29.01
2018-09-27T11:13:39.450Z,29.34
2018-09-27T11:14:39.633Z,29.36
2018-09-27T11:15:39.808Z,28.93
2018-09-27T11:16:40.152Z,29.27
2018-09-27T11:17:40.180Z,29.16
2018-09-27T11:18:40.390Z,29.53
2018-09-27T11:19:40.575Z,29.57
2018-09-27T11:20:40.762Z,29.73
2018-09-27T11:21:40.952Z,28.91
2018-09-27T11:22:41.149Z,28.63
2018-09-27T11:23:41.338Z,28.69
2018-09-27T11:24:41.528Z,27.12
2018-09-27T11:25:41.683Z,26.84
2018-09-27T11:26:41.860Z,26.84
2018-09-27T11:27:42.101Z,26.62
2018-09-27T11:28:42.285Z,25.72
2018-09-27T11:29:42.347Z,25.13
2018-09-27T11:30:42.525Z,24.63
2018-09-27T11:31:42.764Z,24.63
2018-09-27T11:32:42.943Z,24.76
2018-09-27T11:33:43.154Z,24.23
2018-09-27T11:34:43.435Z,24.55
2018-09-27T11:35:43.517Z,24.53
2018-09-27T11:36:43.732Z,24.32
2018-09-27T11:37:43.898Z,24.35
2018-09-27T11:38:44.201Z,24.06
2018-09-27T11:39:44.240Z,24.18
2018-09-27T11:40:44.428Z,24.42
2018-09-27T11:41:44.668Z,24.53
2018-09-27T11:42:44.846Z,24.58
2018-09-27T11:43:44.975Z,24.85
2018-09-27T11:44:45.128Z,25.38
2018-09-27T11:45:45.303Z,25.53
2018-09-27T11:46:45.516Z,25.38
2018-09-27T11:47:45.663Z,25.16
2018-09-27T11:48:45.895Z,24.85
2018-09-27T11:49:46.207Z,24.47
2018-09-27T11:50:46.269Z,24.54
2018-09-27T11:51:46.420Z,24.70
2018-09-27T11:52:46.584Z,24.80
2018-09-27T11:53:46.802Z,24.86
2018-09-27T11:54:46.971Z,24.86
2018-09-27T11:55:47.143Z,24.92
2018-09-27T11:56:47.323Z,24.80
2018-09-27T11:57:47.500Z,24.86
2018-09-27T11:58:47.662Z,24.98
2018-09-27T11:59:47.876Z,24.80
2018-09-27T12:00:48.060Z,24.88
2018-09-27T12:01:48.218Z,24.89
2018-09-27T12:02:48.496Z,24.81
2018-09-27T12:03:48.601Z,24.88
2018-09-27T12:04:48.732Z,25.03
2018-09-27T12:05:48.947Z,25.03
2018-09-27T12:06:49.109Z,25.04
2018-09-27T12:07:49.271Z,24.95
2018-09-27T12:08:49.507Z,24.63
2018-09-27T12:09:49.644Z,24.63
2018-09-27T12:10:49.874Z,24.60
2018-09-27T12:11:50.054Z,24.57
2018-09-27T12:12:50.203Z,24.69
2018-09-27T12:13:50.380Z,24.63
2018-09-27T12:14:50.557Z,24.48
2018-09-27T12:15:50.760Z,24.68
2018-09-27T12:16:50.996Z,24.69
2018-09-27T12:17:51.145Z,24.63
2018-09-27T12:18:51.310Z,24.81
2018-09-27T12:19:51.504Z,24.91
2018-09-27T12:20:51.661Z,24.84
2018-09-27T12:21:51.816Z,24.85
2018-09-27T12:22:52.015Z,25.03
2018-09-27T12:23:52.192Z,25.03
2018-09-27T12:24:52.374Z,25.06
2018-09-27T12:25:52.537Z,25.26
2018-09-27T12:26:52.722Z,25.17
2018-09-27T12:27:52.879Z,25.13
2018-09-27T12:28:53.075Z,24.89
2018-09-27T12:29:53.263Z,24.96
2018-09-27T12:30:53.475Z,25.04
2018-09-27T12:31:53.635Z,24.92
2018-09-27T12:32:53.769Z,25.03
2018-09-27T12:33:53.978Z,24.99
2018-09-27T12:34:54.097Z,25.13
2018-09-27T12:35:54.274Z,25.03
2018-09-27T12:36:54.452Z,24.99
2018-09-27T12:37:54.627Z,25.11
2018-09-27T12:38:54.974Z,25.06
2018-09-27T12:39:54.971Z,25.13
2018-09-27T12:40:55.167Z,25.13
2018-09-27T12:41:55.486Z,24.92
2018-09-27T12:42:55.529Z,25.07
2018-09-27T12:43:55.654Z,25.01
2018-09-27T12:44:55.926Z,24.85
2018-09-27T12:46:56.278Z,24.80
2018-09-27T12:47:56.401Z,24.98
2018-09-27T12:48:56.609Z,24.93
2018-09-27T12:49:56.702Z,25.01
2018-09-27T12:50:56.889Z,25.08
2018-09-27T12:51:57.382Z,25.11
2018-09-27T12:52:57.272Z,24.99
2018-09-27T12:53:57.358Z,24.98
2018-09-27T12:54:57.533Z,24.95
2018-09-27T12:55:57.736Z,24.95
2018-09-27T12:56:57.918Z,24.89
2018-09-27T12:57:58.097Z,24.99
2018-09-27T12:58:58.262Z,24.89
2018-09-27T12:59:58.447Z,25.04
2018-09-27T13:00:58.665Z,25.14
2018-09-27T13:01:59.089Z,25.17
2018-09-27T13:02:59.165Z,25.10
2018-09-27T13:03:59.175Z,25.11
2018-09-27T13:04:59.341Z,25.17
2018-09-27T13:05:59.543Z,25.16
2018-09-27T13:06:59.815Z,25.11
2018-09-27T13:07:59.870Z,25.14
2018-09-27T13:09:00.118Z,25.08
2018-09-27T13:10:00.513Z,25.17
2018-09-27T13:11:00.398Z,25.18
2018-09-27T13:12:00.683Z,25.04
2018-09-27T13:13:00.815Z,25.04